createdAt,value
2023-02-22T00:02:27.112Z,66.20
2023-02-22T00:04:56.006Z,66.20
2023-02-22T00:07:29.873Z,66.50
2023-02-22T00:10:01.022Z,66.40
2023-02-22T00:12:29.846Z,66.60
2023-02-22T00:14:58.163Z,66.50
2023-02-22T00:17:30.706Z,66.50
2023-02-22T00:19:59.120Z,66.60
2023-02-22T00:22:27.449Z,66.70
2023-02-22T00:24:55.749Z,66.70
2023-02-22T00:27:24.110Z,66.80
2023-02-22T00:29:52.394Z,66.90
2023-02-22T00:32:20.789Z,67.00
2023-02-22T00:34:53.334Z,67.20
2023-02-22T00:37:31.766Z,67.30
2023-02-22T00:40:00.142Z,67.40
2023-02-22T00:42:28.668Z,67.40
2023-02-22T00:44:56.984Z,67.50
2023-02-22T00:47:26.452Z,67.30
2023-02-22T00:49:54.838Z,67.30
2023-02-22T00:52:23.309Z,67.10
2023-02-22T00:54:52.976Z,67.10
2023-02-22T00:57:21.745Z,67.00
2023-02-22T00:59:50.108Z,67.00
2023-02-22T01:02:18.985Z,67.00
2023-02-22T01:04:48.955Z,66.90
2023-02-22T01:07:17.557Z,66.70
2023-02-22T01:09:45.980Z,66.70
2023-02-22T01:12:16.144Z,66.70
2023-02-22T01:14:44.568Z,66.80
2023-02-22T01:17:12.926Z,66.80
2023-02-22T01:19:42.585Z,66.90
2023-02-22T01:22:11.186Z,67.00
2023-02-22T01:24:39.533Z,67.10
2023-02-22T01:27:07.936Z,67.20
2023-02-22T01:29:39.250Z,67.30
2023-02-22T01:32:08.568Z,67.50
2023-02-22T01:34:36.996Z,67.60
2023-02-22T01:37:06.529Z,67.80
2023-02-22T01:39:34.986Z,68.10
2023-02-22T01:42:03.472Z,68.20
2023-02-22T01:44:34.311Z,68.40
2023-02-22T01:47:05.833Z,68.60
2023-02-22T01:49:39.551Z,68.80
2023-02-22T01:52:10.660Z,68.90
2023-02-22T01:54:43.182Z,69.00
2023-02-22T01:57:17.302Z,69.20
2023-02-22T01:59:49.770Z,69.30
2023-02-22T02:02:21.920Z,69.60
2023-02-22T02:04:50.804Z,69.70
2023-02-22T02:07:21.230Z,69.70
2023-02-22T02:09:57.778Z,69.80
2023-02-22T02:12:28.960Z,69.80
2023-02-22T02:15:18.862Z,69.90
2023-02-22T02:17:49.761Z,69.90
2023-02-22T02:20:25.265Z,70.00
2023-02-22T02:23:01.001Z,70.10
2023-02-22T02:26:03.930Z,70.20
2023-02-22T02:29:12.726Z,70.30
2023-02-22T02:32:07.395Z,70.30
2023-02-22T02:34:42.199Z,70.30
2023-02-22T02:37:17.400Z,70.40
2023-02-22T02:39:54.430Z,70.40
2023-02-22T02:42:27.155Z,70.50
2023-02-22T02:45:02.696Z,70.50
2023-02-22T02:47:38.163Z,70.50
2023-02-22T02:50:10.587Z,70.60
2023-02-22T02:52:41.850Z,70.60
2023-02-22T02:55:12.488Z,70.70
2023-02-22T02:57:43.168Z,70.60
2023-02-22T03:00:22.720Z,70.70
2023-02-22T03:03:06.892Z,71.60
2023-02-22T03:06:13.679Z,71.10
2023-02-22T03:08:45.924Z,71.20
2023-02-22T03:11:18.982Z,71.40
2023-02-22T03:13:56.806Z,71.40
2023-02-22T03:16:35.261Z,71.60
2023-02-22T03:19:10.685Z,71.80
2023-02-22T03:21:47.014Z,72.00
2023-02-22T03:24:23.403Z,72.10
2023-02-22T03:26:58.125Z,72.40
2023-02-22T03:29:29.329Z,72.50
2023-02-22T03:32:01.809Z,72.40
2023-02-22T03:34:41.874Z,72.50
2023-02-22T03:37:17.364Z,72.80
2023-02-22T03:39:50.506Z,72.90
2023-02-22T03:42:23.629Z,73.80
2023-02-22T03:44:54.907Z,73.10
2023-02-22T03:47:31.756Z,73.20
2023-02-22T03:50:07.027Z,74.00
2023-02-22T03:52:37.679Z,73.40
2023-02-22T03:55:13.375Z,73.40
2023-02-22T03:57:44.822Z,73.40
2023-02-22T04:00:18.131Z,73.30
2023-02-22T04:02:47.340Z,73.30
2023-02-22T04:05:22.226Z,73.40
2023-02-22T04:07:50.686Z,74.00
2023-02-22T04:10:19.174Z,73.90
2023-02-22T04:12:47.660Z,73.80
2023-02-22T04:15:18.874Z,73.80
2023-02-22T04:17:47.384Z,74.00
2023-02-22T04:20:20.089Z,74.40
2023-02-22T04:23:02.708Z,74.90
2023-02-22T04:25:32.070Z,75.20
2023-02-22T04:28:12.225Z,75.60
2023-02-22T04:30:52.667Z,76.00
2023-02-22T04:33:21.701Z,76.10
2023-02-22T04:35:51.716Z,76.80
2023-02-22T04:38:21.746Z,76.10
2023-02-22T04:40:50.205Z,76.10
2023-02-22T04:43:18.720Z,76.20
2023-02-22T04:45:47.995Z,76.20
2023-02-22T04:48:16.391Z,76.10
2023-02-22T04:50:44.786Z,76.00
2023-02-22T04:53:13.159Z,76.00
2023-02-22T04:55:42.867Z,75.70
2023-02-22T04:58:11.364Z,75.60
2023-02-22T05:00:39.837Z,75.40
2023-02-22T05:03:09.177Z,75.30
2023-02-22T05:05:37.576Z,75.30
2023-02-22T05:08:06.142Z,75.20
2023-02-22T05:10:34.468Z,75.30
2023-02-22T05:13:06.197Z,75.30
2023-02-22T05:15:34.721Z,75.30
2023-02-22T05:18:03.086Z,75.30
2023-02-22T05:20:33.956Z,75.30
2023-02-22T05:23:03.597Z,75.40
2023-02-22T05:25:32.137Z,75.40
2023-02-22T05:28:04.038Z,75.30
2023-02-22T05:30:35.000Z,75.20
2023-02-22T05:33:03.868Z,75.40
2023-02-22T05:35:32.380Z,75.50
2023-02-22T05:38:03.218Z,75.30
2023-02-22T05:40:32.814Z,75.50
2023-02-22T05:43:02.255Z,75.60
2023-02-22T05:45:32.069Z,75.80
2023-02-22T05:48:01.488Z,76.00
2023-02-22T05:50:30.348Z,76.40
2023-02-22T05:52:58.726Z,76.80
2023-02-22T05:55:27.268Z,77.70
2023-02-22T05:57:55.649Z,79.50
2023-02-22T06:00:26.487Z,81.90
2023-02-22T06:02:57.466Z,84.20
2023-02-22T06:05:25.905Z,86.20
2023-02-22T06:07:55.013Z,88.30
2023-02-22T06:10:23.432Z,90.00
2023-02-22T06:12:52.762Z,90.50
2023-02-22T06:15:22.967Z,90.60
2023-02-22T06:17:51.495Z,90.60
2023-02-22T06:20:24.200Z,90.30
2023-02-22T06:22:54.083Z,90.40
2023-02-22T06:25:25.098Z,89.80
2023-02-22T06:27:53.624Z,88.90
2023-02-22T06:30:24.103Z,87.30
2023-02-22T06:32:52.462Z,83.90
2023-02-22T06:35:23.131Z,80.20
2023-02-22T06:37:51.497Z,76.30
2023-02-22T06:40:20.241Z,73.70
2023-02-22T06:42:49.602Z,72.70
2023-02-22T06:45:19.228Z,71.50
2023-02-22T06:47:48.096Z,70.60
2023-02-22T06:50:24.034Z,69.20
2023-02-22T06:52:52.864Z,70.10
2023-02-22T06:55:23.100Z,69.60
2023-02-22T06:57:51.805Z,67.50
2023-02-22T07:00:22.192Z,65.70
2023-02-22T07:02:50.820Z,64.10
2023-02-22T07:05:21.984Z,63.00
2023-02-22T07:07:53.914Z,62.10
2023-02-22T07:10:26.364Z,61.00
2023-02-22T07:12:55.383Z,60.20
2023-02-22T07:15:25.766Z,59.60
2023-02-22T07:17:54.183Z,59.30
2023-02-22T07:20:24.634Z,59.10
2023-02-22T07:22:54.817Z,58.90
2023-02-22T07:25:24.877Z,58.90
2023-02-22T07:27:53.593Z,58.90
2023-02-22T07:30:26.100Z,59.10
2023-02-22T07:32:56.410Z,59.40
2023-02-22T07:35:29.469Z,59.70
2023-02-22T07:37:59.417Z,60.00
2023-02-22T07:40:28.515Z,60.30
2023-02-22T07:42:59.523Z,60.60
2023-02-22T07:45:30.099Z,60.90
2023-02-22T07:47:59.115Z,61.20
2023-02-22T07:50:31.303Z,61.50
2023-02-22T07:53:03.082Z,61.60
2023-02-22T07:55:33.467Z,61.90
2023-02-22T07:58:03.974Z,62.00
2023-02-22T08:00:34.131Z,62.10
2023-02-22T08:03:03.725Z,62.20
2023-02-22T08:05:33.040Z,62.40
2023-02-22T08:08:03.363Z,62.40
2023-02-22T08:10:32.271Z,62.30
2023-02-22T08:13:00.931Z,62.30
2023-02-22T08:15:31.491Z,62.50
2023-02-22T08:18:01.355Z,62.40
2023-02-22T08:20:31.096Z,62.40
2023-02-22T08:23:00.137Z,62.50
2023-02-22T08:25:31.058Z,62.60
2023-02-22T08:28:01.511Z,62.80
2023-02-22T08:30:32.314Z,63.00
2023-02-22T08:33:02.655Z,63.40
2023-02-22T08:35:32.920Z,63.80
2023-02-22T08:38:03.838Z,64.20
2023-02-22T08:40:36.515Z,64.30
2023-02-22T08:43:06.673Z,64.40
2023-02-22T08:45:35.288Z,64.30
2023-02-22T08:48:03.726Z,64.10
2023-02-22T08:50:35.612Z,64.00
2023-02-22T08:53:05.993Z,63.70
2023-02-22T08:55:37.980Z,63.30
2023-02-22T08:58:09.780Z,63.10
2023-02-22T09:00:39.944Z,62.80
2023-02-22T09:03:10.746Z,62.40
2023-02-22T09:05:39.144Z,61.90
2023-02-22T09:08:07.578Z,61.40
2023-02-22T09:10:37.355Z,61.00
2023-02-22T09:13:06.555Z,60.60
2023-02-22T09:15:36.965Z,60.20
2023-02-22T09:18:08.502Z,59.70
2023-02-22T09:20:37.349Z,59.40
2023-02-22T09:23:07.414Z,59.00
2023-02-22T09:25:39.056Z,58.70
2023-02-22T09:28:07.825Z,58.40
2023-02-22T09:30:37.635Z,58.00
2023-02-22T09:33:10.340Z,57.90
2023-02-22T09:35:42.597Z,57.90
2023-02-22T09:38:12.461Z,57.70
2023-02-22T09:40:46.712Z,57.40
2023-02-22T09:43:37.875Z,57.20
2023-02-22T09:46:23.094Z,57.20
2023-02-22T09:49:06.389Z,57.00
2023-02-22T09:51:43.034Z,56.80
2023-02-22T09:54:20.024Z,56.80
2023-02-22T09:56:54.191Z,56.50
2023-02-22T09:59:27.051Z,56.40
2023-02-22T10:02:03.279Z,56.40
2023-02-22T10:04:42.577Z,56.40
2023-02-22T10:07:19.788Z,56.20
2023-02-22T10:09:51.094Z,56.00
2023-02-22T10:12:29.600Z,55.80
2023-02-22T10:15:28.553Z,55.40
2023-02-22T10:18:12.196Z,55.20
2023-02-22T10:20:51.026Z,55.00
2023-02-22T10:23:26.801Z,55.00
2023-02-22T10:26:06.981Z,54.70
2023-02-22T10:28:41.241Z,54.40
2023-02-22T10:31:14.781Z,54.20
2023-02-22T10:33:48.978Z,53.90
2023-02-22T10:36:21.005Z,53.70
2023-02-22T10:38:55.465Z,53.70
2023-02-22T10:41:30.385Z,53.70
2023-02-22T10:44:00.683Z,53.70
2023-02-22T10:46:30.693Z,53.60
2023-02-22T10:49:03.775Z,53.60
2023-02-22T10:51:32.936Z,53.40
2023-02-22T10:54:24.205Z,53.10
2023-02-22T10:56:55.618Z,53.30
2023-02-22T10:59:35.587Z,53.10
2023-02-22T11:02:17.984Z,52.90
2023-02-22T11:04:50.010Z,52.50
2023-02-22T11:07:24.223Z,52.40
2023-02-22T11:09:55.610Z,52.10
2023-02-22T11:12:30.541Z,51.70
2023-02-22T11:15:27.052Z,51.40
2023-02-22T11:17:57.494Z,50.60
2023-02-22T11:20:29.005Z,50.30
2023-02-22T11:23:01.065Z,49.70
2023-02-22T11:25:34.142Z,49.40
2023-02-22T11:28:10.862Z,48.90
2023-02-22T11:30:40.752Z,48.40
2023-02-22T11:33:23.968Z,48.10
2023-02-22T11:35:55.250Z,47.70
2023-02-22T11:38:26.116Z,47.40
2023-02-22T11:41:15.029Z,47.10
2023-02-22T11:43:44.117Z,47.10
2023-02-22T11:46:18.986Z,47.00
2023-02-22T11:48:58.846Z,46.60
2023-02-22T11:51:46.502Z,46.40
2023-02-22T11:54:29.148Z,46.10
2023-02-22T11:57:08.749Z,45.70
2023-02-22T11:59:46.532Z,45.70
2023-02-22T12:02:31.580Z,45.70
2023-02-22T12:05:19.475Z,45.60
2023-02-22T12:07:59.054Z,44.70
2023-02-22T12:10:43.042Z,44.60
2023-02-22T12:13:27.223Z,44.30
2023-02-22T12:16:01.748Z,44.20
2023-02-22T12:18:38.993Z,44.20
2023-02-22T12:21:13.502Z,43.90
2023-02-22T12:23:46.812Z,43.70
2023-02-22T12:26:20.222Z,43.00
2023-02-22T12:28:59.386Z,42.80
2023-02-22T12:31:34.404Z,41.60
2023-02-22T12:34:12.009Z,41.80
2023-02-22T12:36:46.983Z,42.20
2023-02-22T12:39:29.256Z,41.90
2023-02-22T12:41:59.251Z,41.70
2023-02-22T12:44:31.749Z,41.70
2023-02-22T12:47:02.511Z,41.60
2023-02-22T12:49:39.427Z,41.60
2023-02-22T12:52:36.181Z,41.10
2023-02-22T12:55:12.197Z,40.80
2023-02-22T12:57:45.589Z,40.90
2023-02-22T13:00:20.334Z,41.00
2023-02-22T13:02:58.209Z,41.00
2023-02-22T13:05:30.802Z,40.90
2023-02-22T13:08:17.379Z,40.10
2023-02-22T13:11:04.475Z,40.30
2023-02-22T13:13:41.011Z,40.60
2023-02-22T13:16:23.314Z,40.90
2023-02-22T13:18:58.388Z,40.90
2023-02-22T13:21:37.425Z,40.90
2023-02-22T13:24:13.645Z,40.90
2023-02-22T13:26:50.417Z,41.00
2023-02-22T13:29:23.616Z,41.00
2023-02-22T13:32:05.072Z,41.20
2023-02-22T13:34:51.875Z,41.30
2023-02-22T13:37:42.801Z,41.60
2023-02-22T13:40:27.456Z,41.50
2023-02-22T13:43:15.843Z,41.80
2023-02-22T13:46:03.546Z,42.10
2023-02-22T13:49:02.610Z,42.30
2023-02-22T13:51:47.266Z,42.60
2023-02-22T13:54:28.326Z,42.90
2023-02-22T13:56:58.853Z,43.10
2023-02-22T13:59:30.937Z,43.20
2023-02-22T14:02:00.655Z,43.30
2023-02-22T14:04:46.732Z,43.60
2023-02-22T14:07:48.234Z,43.70
2023-02-22T14:10:53.107Z,43.90
2023-02-22T14:13:24.080Z,43.90
2023-02-22T14:16:22.547Z,44.00
2023-02-22T14:19:06.404Z,44.20
2023-02-22T14:21:36.351Z,44.20
2023-02-22T14:24:11.231Z,44.30
2023-02-22T14:26:40.903Z,44.50
2023-02-22T14:29:21.292Z,44.70
2023-02-22T14:32:13.162Z,44.90
2023-02-22T14:34:51.298Z,44.90
2023-02-22T14:37:25.032Z,44.90
2023-02-22T14:39:58.814Z,45.10
2023-02-22T14:42:33.110Z,45.10
2023-02-22T14:45:17.341Z,45.10
2023-02-22T14:47:51.124Z,45.10
2023-02-22T14:50:23.486Z,45.10
2023-02-22T14:53:02.139Z,45.30
2023-02-22T14:55:34.112Z,45.40
2023-02-22T14:58:09.764Z,45.50
2023-02-22T15:00:42.354Z,45.70
2023-02-22T15:03:21.006Z,45.70
2023-02-22T15:05:49.842Z,45.90
2023-02-22T15:08:28.150Z,46.00
2023-02-22T15:10:56.567Z,46.60
2023-02-22T15:13:27.107Z,47.30
2023-02-22T15:16:01.888Z,47.00
2023-02-22T15:18:35.893Z,47.00
2023-02-22T15:21:10.499Z,47.10
2023-02-22T15:23:50.012Z,47.20
2023-02-22T15:26:21.650Z,46.70
2023-02-22T15:28:54.444Z,46.40
2023-02-22T15:31:31.666Z,46.10
2023-02-22T15:34:11.834Z,45.60
2023-02-22T15:36:40.341Z,45.20
2023-02-22T15:39:21.198Z,45.00
2023-02-22T15:41:49.560Z,44.90
2023-02-22T15:44:23.802Z,45.30
2023-02-22T15:46:56.457Z,44.70
2023-02-22T15:49:25.972Z,44.80
2023-02-22T15:52:05.727Z,44.90
2023-02-22T15:54:44.522Z,45.10
2023-02-22T15:57:17.255Z,45.10
2023-02-22T15:59:49.210Z,45.30
2023-02-22T16:02:32.668Z,45.40
2023-02-22T16:05:05.169Z,45.60
2023-02-22T16:07:34.518Z,45.60
2023-02-22T16:10:09.490Z,45.80
2023-02-22T16:12:38.078Z,45.80
2023-02-22T16:15:17.615Z,45.90
2023-02-22T16:18:01.674Z,46.10
2023-02-22T16:20:36.266Z,46.20
2023-02-22T16:23:25.484Z,46.30
2023-02-22T16:26:14.103Z,46.30
2023-02-22T16:28:51.978Z,46.50
2023-02-22T16:31:22.492Z,46.50
2023-02-22T16:33:53.135Z,46.50
2023-02-22T16:36:24.828Z,46.70
2023-02-22T16:38:53.793Z,46.70
2023-02-22T16:41:22.239Z,46.90
2023-02-22T16:43:51.889Z,46.90
2023-02-22T16:46:21.161Z,46.90
2023-02-22T16:48:51.194Z,47.00
2023-02-22T16:51:22.713Z,47.00
2023-02-22T16:53:53.406Z,47.10
2023-02-22T16:56:26.681Z,47.30
2023-02-22T16:58:55.096Z,47.40
2023-02-22T17:01:24.532Z,47.70
2023-02-22T17:03:55.008Z,47.70
2023-02-22T17:06:23.342Z,47.90
2023-02-22T17:08:52.673Z,48.00
2023-02-22T17:11:21.413Z,48.10
2023-02-22T17:13:51.907Z,48.10
2023-02-22T17:16:20.781Z,48.20
2023-02-22T17:18:51.463Z,48.40
2023-02-22T17:21:21.262Z,48.50
2023-02-22T17:23:49.789Z,48.70
2023-02-22T17:26:18.945Z,49.10
2023-02-22T17:28:47.584Z,49.00
2023-02-22T17:31:22.746Z,49.10
2023-02-22T17:33:52.430Z,49.20
2023-02-22T17:36:23.650Z,49.30
2023-02-22T17:38:51.988Z,49.40
2023-02-22T17:41:20.461Z,49.60
2023-02-22T17:43:49.175Z,49.70
2023-02-22T17:46:19.965Z,49.90
2023-02-22T17:48:49.494Z,50.00
2023-02-22T17:51:17.960Z,50.00
2023-02-22T17:53:47.846Z,50.30
2023-02-22T17:56:18.996Z,50.50
2023-02-22T17:58:49.728Z,50.50
2023-02-22T18:01:24.681Z,50.50
2023-02-22T18:03:53.696Z,50.70
2023-02-22T18:06:25.487Z,50.90
2023-02-22T18:08:57.004Z,50.90
2023-02-22T18:11:26.854Z,51.70
2023-02-22T18:13:55.875Z,52.20
2023-02-22T18:16:25.842Z,52.40
2023-02-22T18:18:54.432Z,52.50
2023-02-22T18:21:23.546Z,52.40
2023-02-22T18:23:51.895Z,52.70
2023-02-22T18:26:23.464Z,52.70
2023-02-22T18:28:53.645Z,52.70
2023-02-22T18:31:23.720Z,52.80
2023-02-22T18:33:53.964Z,53.10
2023-02-22T18:36:23.921Z,53.20
2023-02-22T18:38:55.247Z,53.30
2023-02-22T18:41:26.522Z,53.40
2023-02-22T18:43:59.106Z,53.50
2023-02-22T18:46:30.256Z,53.70
2023-02-22T18:48:59.453Z,53.70
2023-02-22T18:51:28.629Z,53.80
2023-02-22T18:54:00.655Z,53.70
2023-02-22T18:56:31.474Z,53.80
2023-02-22T18:59:01.630Z,54.00
2023-02-22T19:01:31.265Z,53.90
2023-02-22T19:04:01.307Z,53.80
2023-02-22T19:06:29.718Z,53.70
2023-02-22T19:09:01.544Z,53.90
2023-02-22T19:11:31.417Z,53.80
2023-02-22T19:13:59.703Z,54.00
2023-02-22T19:16:28.529Z,53.90
2023-02-22T19:18:58.162Z,53.90
2023-02-22T19:21:28.432Z,53.70
2023-02-22T19:24:02.120Z,53.60
2023-02-22T19:26:32.160Z,53.50
2023-02-22T19:29:04.873Z,53.70
2023-02-22T19:31:34.697Z,53.90
2023-02-22T19:34:05.117Z,53.80
2023-02-22T19:36:33.845Z,53.80
2023-02-22T19:39:02.703Z,53.70
2023-02-22T19:41:32.600Z,54.30
2023-02-22T19:44:02.391Z,53.70
2023-02-22T19:46:31.183Z,53.60
2023-02-22T19:49:00.293Z,53.50
2023-02-22T19:51:30.664Z,53.80
2023-02-22T19:54:00.692Z,53.90
2023-02-22T19:56:30.995Z,53.80
2023-02-22T19:59:02.808Z,53.80
2023-02-22T20:01:34.089Z,53.80
2023-02-22T20:04:05.076Z,53.90
2023-02-22T20:06:35.920Z,54.20
2023-02-22T20:09:04.592Z,54.50
2023-02-22T20:11:33.079Z,54.40
2023-02-22T20:14:02.764Z,54.50
2023-02-22T20:16:31.127Z,54.50
2023-02-22T20:18:59.953Z,54.70
2023-02-22T20:21:31.848Z,54.70
2023-02-22T20:24:00.334Z,55.10
2023-02-22T20:26:30.384Z,55.40
2023-02-22T20:28:59.635Z,55.30
2023-02-22T20:31:29.716Z,55.00
2023-02-22T20:34:00.403Z,54.90
2023-02-22T20:36:30.477Z,55.10
2023-02-22T20:39:00.858Z,55.20
2023-02-22T20:41:30.777Z,55.30
2023-02-22T20:44:00.738Z,55.20
2023-02-22T20:46:32.525Z,55.20
2023-02-22T20:49:02.526Z,55.20
2023-02-22T20:51:31.499Z,55.10
2023-02-22T20:54:01.004Z,55.10
2023-02-22T20:56:30.956Z,55.10
2023-02-22T20:59:01.925Z,55.10
2023-02-22T21:01:32.488Z,55.30
2023-02-22T21:04:02.093Z,55.30
2023-02-22T21:06:31.338Z,55.30
2023-02-22T21:09:02.867Z,55.40
2023-02-22T21:11:32.667Z,55.40
2023-02-22T21:14:01.659Z,55.50
2023-02-22T21:16:33.407Z,55.60
2023-02-22T21:19:03.627Z,55.70
2023-02-22T21:21:33.013Z,55.60
2023-02-22T21:24:02.699Z,55.70
2023-02-22T21:26:33.345Z,56.40
2023-02-22T21:29:03.517Z,55.80
2023-02-22T21:31:34.906Z,55.90
2023-02-22T21:34:05.520Z,56.00
2023-02-22T21:36:33.938Z,56.10
2023-02-22T21:39:08.549Z,56.10
2023-02-22T21:41:39.719Z,56.20
2023-02-22T21:44:09.142Z,56.50
2023-02-22T21:46:38.791Z,56.60
2023-02-22T21:49:07.247Z,56.50
2023-02-22T21:51:37.746Z,56.40
2023-02-22T21:54:08.726Z,56.30
2023-02-22T21:56:39.964Z,56.40
2023-02-22T21:59:11.845Z,56.40
2023-02-22T22:01:47.268Z,56.60
2023-02-22T22:04:19.079Z,56.70
2023-02-22T22:06:49.199Z,56.90
2023-02-22T22:09:22.060Z,56.80
2023-02-22T22:11:53.385Z,56.70
2023-02-22T22:14:25.284Z,56.80
2023-02-22T22:16:58.594Z,56.80
2023-02-22T22:19:27.310Z,56.90
2023-02-22T22:21:55.691Z,57.00
2023-02-22T22:24:24.605Z,57.10
2023-02-22T22:26:54.917Z,57.10
2023-02-22T22:29:24.713Z,57.40
2023-02-22T22:31:54.541Z,57.40
2023-02-22T22:34:24.449Z,57.30
2023-02-22T22:36:52.945Z,57.40
2023-02-22T22:39:21.433Z,57.60
2023-02-22T22:41:49.864Z,57.60
2023-02-22T22:44:22.491Z,57.80
2023-02-22T22:46:53.950Z,57.60
2023-02-22T22:49:25.595Z,57.60
2023-02-22T22:51:54.582Z,57.50
2023-02-22T22:54:23.948Z,57.50
2023-02-22T22:56:52.354Z,57.50
2023-02-22T22:59:21.732Z,57.50
2023-02-22T23:01:52.226Z,57.50
2023-02-22T23:04:24.466Z,57.50
2023-02-22T23:06:55.578Z,57.60
2023-02-22T23:09:25.908Z,57.70
2023-02-22T23:11:56.698Z,57.70
2023-02-22T23:14:26.960Z,57.80
2023-02-22T23:17:03.476Z,58.00
2023-02-22T23:19:32.706Z,57.90
2023-02-22T23:22:05.276Z,57.90
2023-02-22T23:24:36.325Z,58.10
2023-02-22T23:27:07.234Z,58.00
2023-02-22T23:29:38.858Z,58.20
2023-02-22T23:32:07.841Z,58.10
2023-02-22T23:34:41.456Z,58.80
2023-02-22T23:37:14.319Z,58.20
2023-02-22T23:39:43.346Z,58.30
2023-02-22T23:42:11.728Z,58.20
2023-02-22T23:44:40.720Z,58.30
2023-02-22T23:47:09.962Z,58.40
2023-02-22T23:49:38.919Z,58.40
2023-02-22T23:52:09.775Z,58.50
2023-02-22T23:54:44.065Z,58.50
2023-02-22T23:57:12.675Z,58.60
2023-02-22T23:59:41.428Z,58.60
